Time;durP1;ratioP1;P1;durP2;ratioP2;P2;SDS_P1;SDS_P2;PMS_P1;PMS_P2;Temp;Humidity;BMP_temperature;BMP_pressure;BME280_temperature;BME280_humidity;BME280_pressure;Samples;Min_cycle;Max_cycle;Signal;HPM_P1;HPM_P2
2023/04/06 00:00:11;;;;;;;14.82;9.10;;;;;;;1.30;76.39;101873.69;6188586;23;20037;-79
2023/04/06 00:02:37;;;;;;;15.80;9.73;;;;;;;1.29;76.89;101870.31;6188784;23;20514;-79
2023/04/06 00:05:04;;;;;;;15.32;8.82;;;;;;;1.30;76.97;101865.81;6193256;23;20085;-79
2023/04/06 00:07:33;;;;;;;14.77;8.93;;;;;;;1.29;76.99;101869.56;6188276;23;20470;-79
2023/04/06 00:09:59;;;;;;;15.35;9.65;;;;;;;1.29;77.31;101861.69;6188984;23;20013;-79
2023/04/06 00:12:26;;;;;;;16.13;9.05;;;;;;;1.26;76.89;101862.38;6188340;23;20025;-79
2023/04/06 00:14:52;;;;;;;14.00;8.98;;;;;;;1.25;77.32;101855.59;6188411;23;20048;-80
2023/04/06 00:17:19;;;;;;;18.52;9.90;;;;;;;1.22;77.02;101851.06;6188335;23;20488;-78
2023/04/06 00:19:45;;;;;;;13.65;9.50;;;;;;;1.19;77.01;101852.53;6189950;23;20021;-79
2023/04/06 00:22:12;;;;;;;13.85;9.98;;;;;;;1.13;77.27;101859.16;6186496;23;20105;-79
2023/04/06 00:24:39;;;;;;;13.95;9.05;;;;;;;1.07;77.92;101852.69;6186874;23;20028;-79
2023/04/06 00:27:05;;;;;;;19.00;10.18;;;;;;;1.07;77.71;101849.31;6188991;23;20077;-78
2023/04/06 00:29:32;;;;;;;17.83;10.48;;;;;;;1.08;77.95;101842.94;6187670;23;20877;-78
2023/04/06 00:31:59;;;;;;;16.27;9.63;;;;;;;1.06;77.45;101842.53;6188732;23;20060;-79
2023/04/06 00:34:25;;;;;;;13.95;9.43;;;;;;;0.98;77.73;101834.53;6189960;23;20088;-80
2023/04/06 00:36:52;;;;;;;11.35;9.07;;;;;;;0.93;77.75;101839.28;6189065;23;20041;-80
2023/04/06 00:39:18;;;;;;;20.00;9.23;;;;;;;0.95;77.69;101837.84;6161749;23;20030;-79
2023/04/06 00:41:50;;;;;;;12.43;8.82;;;;;;;0.90;77.82;101832.88;6188412;23;20025;-79
2023/04/06 00:44:18;;;;;;;14.70;9.43;;;;;;;0.88;77.97;101829.09;6185840;23;20430;-79
2023/04/06 00:46:44;;;;;;;13.05;9.20;;;;;;;0.86;78.03;101824.19;6187151;23;20025;-79
2023/04/06 00:49:11;;;;;;;13.80;10.05;;;;;;;0.88;78.17;101826.47;6189326;23;20025;-79
2023/04/06 00:51:37;;;;;;;20.58;10.25;;;;;;;0.87;78.42;101817.09;6188271;23;20021;-79
2023/04/06 00:54:04;;;;;;;13.98;9.52;;;;;;;0.86;78.55;101818.19;6186962;23;20080;-79
2023/04/06 00:56:33;;;;;;;15.13;9.40;;;;;;;0.87;78.73;101817.09;6188232;23;20021;-79
2023/04/06 00:59:00;;;;;;;15.30;9.65;;;;;;;0.86;78.59;101813.69;6211337;23;20370;-79
2023/04/06 01:01:28;;;;;;;17.35;10.00;;;;;;;0.86;79.02;101810.31;6186404;23;20026;-79
2023/04/06 01:04:00;;;;;;;18.55;11.05;;;;;;;0.83;78.76;101811.00;6188322;23;20029;-79
2023/04/06 01:06:26;;;;;;;14.50;9.68;;;;;;;0.80;79.11;101812.47;6191656;23;20025;-79
2023/04/06 01:09:00;;;;;;;17.95;9.98;;;;;;;0.77;78.94;101807.19;6188024;23;20022;-79
2023/04/06 01:11:27;;;;;;;17.95;10.63;;;;;;;0.77;79.29;101804.56;6187636;23;20018;-79
2023/04/06 01:13:54;;;;;;;18.40;10.35;;;;;;;0.78;79.55;101795.59;6187670;23;20455;-79
2023/04/06 01:16:26;;;;;;;18.00;10.75;;;;;;;0.79;79.39;101795.25;6187521;23;20100;-80
2023/04/06 01:19:08;;;;;;;13.43;9.73;;;;;;;0.78;79.47;101796.34;6188167;23;20021;-79
2023/04/06 01:21:39;;;;;;;17.55;11.18;;;;;;;0.77;79.08;101792.22;6191850;23;20024;-79
2023/04/06 01:24:24;;;;;;;19.20;10.38;;;;;;;0.79;79.39;101791.88;6189276;23;20025;-79
2023/04/06 01:27:08;;;;;;;16.83;11.15;;;;;;;0.80;79.20;101786.25;6187352;23;20017;-79
2023/04/06 01:29:48;;;;;;;18.15;10.68;;;;;;;0.80;79.46;101781.00;6188263;23;20104;-79
2023/04/06 01:32:22;;;;;;;18.60;10.02;;;;;;;0.81;79.46;101779.16;6187078;23;20022;-79
2023/04/06 01:34:50;;;;;;;17.40;11.23;;;;;;;0.81;79.41;101774.66;6187557;23;20064;-79
2023/04/06 01:37:17;;;;;;;17.05;11.35;;;;;;;0.82;79.64;101770.94;6190712;23;20021;-79
2023/04/06 01:39:44;;;;;;;16.45;10.27;;;;;;;0.85;79.65;101774.72;6188808;23;20399;-79
2023/04/06 01:42:17;;;;;;;18.08;10.52;;;;;;;0.88;79.77;101772.16;6188385;23;20091;-79
2023/04/06 01:44:46;;;;;;;18.70;10.63;;;;;;;0.90;79.79;101769.97;6164322;23;20021;-78
2023/04/06 01:47:14;;;;;;;21.73;12.30;;;;;;;0.90;80.11;101764.72;6188055;23;20060;-78
2023/04/06 01:49:41;;;;;;;18.05;11.00;;;;;;;0.90;79.97;101761.34;6187800;23;20065;-80
2023/04/06 01:52:09;;;;;;;16.73;10.55;;;;;;;0.90;80.11;101762.09;6190527;23;20006;-80
2023/04/06 01:54:39;;;;;;;19.08;10.82;;;;;;;0.90;80.46;101746.38;6187633;23;20025;-80
2023/04/06 01:57:10;;;;;;;23.85;10.75;;;;;;;0.94;80.74;101747.19;6187598;23;20014;-80
2023/04/06 01:59:45;;;;;;;15.43;10.40;;;;;;;0.98;80.80;101748.00;6188243;23;20362;-80
2023/04/06 02:02:44;;;;;;;17.33;10.13;;;;;;;0.99;80.87;101743.53;6189779;23;20097;-81
2023/04/06 02:05:19;;;;;;;15.40;10.35;;;;;;;1.03;81.29;101739.09;6187581;23;20128;-80
2023/04/06 02:07:46;;;;;;;17.13;10.10;;;;;;;1.06;81.76;101737.63;6188101;23;20022;-80
2023/04/06 02:10:17;;;;;;;18.83;10.75;;;;;;;1.08;81.83;101733.56;6186745;23;20014;-80
2023/04/06 02:12:44;;;;;;;16.02;9.95;;;;;;;1.11;81.80;101732.09;6188019;23;20022;-80
2023/04/06 02:15:16;;;;;;;16.50;10.15;;;;;;;1.14;81.71;101736.66;6187907;23;20013;-80
2023/04/06 02:17:43;;;;;;;16.17;9.95;;;;;;;1.15;82.08;101725.06;6189837;23;20101;-80
2023/04/06 02:20:10;;;;;;;13.00;9.43;;;;;;;1.19;82.36;101721.38;6189455;23;20352;-80
2023/04/06 02:22:36;;;;;;;16.67;11.20;;;;;;;1.21;82.24;101724.38;6191547;23;20446;-80
2023/04/06 02:25:03;;;;;;;14.57;10.13;;;;;;;1.24;82.72;101722.94;6188754;23;20082;-79
2023/04/06 02:27:30;;;;;;;16.08;10.82;;;;;;;1.26;82.36;101713.59;6189383;23;20494;-78
2023/04/06 02:29:57;;;;;;;14.07;9.73;;;;;;;1.26;81.93;101716.22;6189442;23;20076;-79
2023/04/06 02:32:24;;;;;;;18.50;10.10;;;;;;;1.29;81.93;101706.91;6189386;23;20029;-78
2023/04/06 02:34:52;;;;;;;14.55;9.80;;;;;;;1.31;81.65;101717.78;6187626;23;20022;-79
2023/04/06 02:37:20;;;;;;;14.90;10.63;;;;;;;1.34;82.10;101711.84;6187320;23;20018;-78
2023/04/06 02:39:46;;;;;;;17.00;10.73;;;;;;;1.36;82.53;101717.50;6197551;23;20014;-79
2023/04/06 02:42:15;;;;;;;17.23;10.52;;;;;;;1.37;82.26;101718.25;6186423;23;20410;-79
2023/04/06 02:44:43;;;;;;;17.33;9.93;;;;;;;1.38;82.88;101704.03;6185763;23;20402;-78
2023/04/06 02:47:10;;;;;;;17.42;10.77;;;;;;;1.41;82.52;101700.72;6187519;23;20010;-78
2023/04/06 02:49:40;;;;;;;14.35;10.32;;;;;;;1.43;82.71;101704.50;6185529;23;20045;-78
2023/04/06 02:52:06;;;;;;;19.27;11.07;;;;;;;1.44;82.87;101706.00;6185684;23;20021;-78
2023/04/06 02:54:35;;;;;;;19.13;10.70;;;;;;;1.46;83.01;101692.53;6186539;23;20021;-78
2023/04/06 02:57:02;;;;;;;17.02;10.77;;;;;;;1.48;82.81;101695.56;6185621;23;20022;-79
2023/04/06 02:59:36;;;;;;;14.02;10.15;;;;;;;1.48;82.93;101698.19;6185656;23;20053;-79
2023/04/06 03:02:12;;;;;;;19.75;10.60;;;;;;;1.49;83.02;101689.97;6187346;23;20043;-78
2023/04/06 03:04:39;;;;;;;16.35;10.40;;;;;;;1.52;82.63;101686.63;6185185;23;20017;-78
2023/04/06 03:07:16;;;;;;;17.63;10.35;;;;;;;1.51;82.97;101677.25;6185775;23;20022;-79
2023/04/06 03:09:42;;;;;;;16.88;10.35;;;;;;;1.54;83.08;101678.41;6187553;23;20868;-80
2023/04/06 03:12:09;;;;;;;19.52;9.80;;;;;;;1.57;83.45;101680.31;6185566;23;20021;-79
2023/04/06 03:14:55;;;;;;;14.60;10.35;;;;;;;1.59;83.60;101685.97;6186909;23;20503;-78
2023/04/06 03:17:22;;;;;;;17.67;11.20;;;;;;;1.59;83.53;101673.59;6187065;23;20041;-78
2023/04/06 03:19:49;;;;;;;13.77;10.07;;;;;;;1.61;83.58;101675.84;6185852;23;20014;-79
2023/04/06 03:22:16;;;;;;;16.13;9.43;;;;;;;1.62;83.42;101678.13;6160476;23;20645;-78
2023/04/06 03:24:46;;;;;;;13.85;9.52;;;;;;;1.64;83.66;101665.41;6185460;23;20021;-78
2023/04/06 03:27:12;;;;;;;16.17;10.48;;;;;;;1.65;83.75;101674.78;6185543;23;20017;-77
2023/04/06 03:29:40;;;;;;;13.90;10.18;;;;;;;1.68;83.85;101670.69;6185406;23;20487;-78
2023/04/06 03:32:10;;;;;;;15.10;10.32;;;;;;;1.70;83.90;101663.22;6185034;23;20049;-78
2023/04/06 03:34:40;;;;;;;17.17;10.43;;;;;;;1.74;83.81;101665.91;6185328;23;20022;-78
2023/04/06 03:37:07;;;;;;;19.30;10.38;;;;;;;1.75;83.87;101668.16;6184657;23;20018;-79
2023/04/06 03:39:42;;;;;;;18.30;10.82;;;;;;;1.77;84.02;101662.56;6188435;23;20010;-79
2023/04/06 03:42:14;;;;;;;20.23;10.45;;;;;;;1.80;83.71;101664.47;6140874;23;1049198;-79
2023/04/06 03:44:48;;;;;;;15.07;10.32;;;;;;;1.81;83.93;101660.75;6189672;23;20014;-80
2023/04/06 03:47:15;;;;;;;13.98;9.85;;;;;;;1.80;84.33;101657.38;6187313;23;20766;-79
2023/04/06 03:49:42;;;;;;;14.40;9.70;;;;;;;1.82;84.67;101662.25;6189041;23;20013;-79
2023/04/06 03:52:11;;;;;;;15.85;10.95;;;;;;;1.82;84.78;101660.38;6186595;23;20475;-78
2023/04/06 03:54:37;;;;;;;14.38;10.10;;;;;;;1.84;85.03;101652.91;6188102;23;20443;-79
2023/04/06 03:57:04;;;;;;;15.90;10.68;;;;;;;1.85;85.30;101654.44;6187492;23;20096;-79
2023/04/06 03:59:31;;;;;;;15.35;10.38;;;;;;;1.86;85.13;101648.06;6188925;23;20013;-79
2023/04/06 04:01:57;;;;;;;15.95;10.85;;;;;;;1.87;84.99;101651.44;6187265;23;20080;-79
2023/04/06 04:04:24;;;;;;;18.98;11.10;;;;;;;1.88;84.66;101651.09;6188820;23;20443;-79
2023/04/06 04:06:51;;;;;;;17.02;9.98;;;;;;;1.90;84.52;101650.72;6186979;23;20021;-79
2023/04/06 04:09:17;;;;;;;15.63;10.52;;;;;;;1.90;84.41;101645.47;6186806;23;20021;-78
2023/04/06 04:11:44;;;;;;;15.10;10.15;;;;;;;1.90;84.36;101641.00;6188861;23;20029;-78
2023/04/06 04:14:10;;;;;;;29.15;10.90;;;;;;;1.90;84.17;101651.50;6188901;23;20468;-79
2023/04/06 04:16:39;;;;;;;14.00;10.27;;;;;;;1.90;84.19;101642.84;6187095;23;20971;-78
2023/04/06 04:19:05;;;;;;;14.48;10.15;;;;;;;1.89;83.79;101642.09;6188812;23;20072;-78
2023/04/06 04:21:32;;;;;;;16.30;10.30;;;;;;;1.89;83.51;101644.72;6186475;23;20025;-79
2023/04/06 04:24:05;;;;;;;14.95;9.68;;;;;;;1.89;83.39;101644.72;6186930;23;20057;-79
2023/04/06 04:26:34;;;;;;;13.75;9.52;;;;;;;1.89;82.96;101644.72;6187194;23;20020;-78
2023/04/06 04:29:01;;;;;;;18.58;10.43;;;;;;;1.89;82.96;101643.97;6189599;23;20010;-79
2023/04/06 04:31:28;;;;;;;14.57;9.80;;;;;;;1.89;82.47;101646.59;6186923;23;20048;-79
2023/04/06 04:34:00;;;;;;;20.33;10.88;;;;;;;1.89;82.03;101644.72;6186928;23;20017;-79
2023/04/06 04:36:30;;;;;;;13.73;9.68;;;;;;;1.90;82.00;101645.47;6186452;23;20527;-78
2023/04/06 04:39:01;;;;;;;15.75;10.32;;;;;;;1.88;81.58;101643.22;6186698;23;20041;-78
2023/04/06 04:41:30;;;;;;;16.30;10.10;;;;;;;1.87;81.22;101644.31;6187225;23;20080;-78
2023/04/06 04:43:58;;;;;;;19.20;10.48;;;;;;;1.88;81.46;101645.84;6191191;23;20253;-79
2023/04/06 04:46:25;;;;;;;15.18;10.23;;;;;;;1.88;80.86;101642.47;6186858;23;20022;-78
2023/04/06 04:48:53;;;;;;;15.30;9.93;;;;;;;1.89;80.30;101638.72;6186955;23;20073;-78
2023/04/06 04:51:20;;;;;;;12.35;9.45;;;;;;;1.91;80.29;101642.50;6185832;23;20018;-78
2023/04/06 04:54:03;;;;;;;15.45;10.10;;;;;;;1.95;79.72;101645.94;6211993;23;20025;-79
2023/04/06 04:56:31;;;;;;;15.00;9.82;;;;;;;2.02;79.09;101639.97;6188424;23;20021;-79
2023/04/06 04:59:24;;;;;;;19.65;10.52;;;;;;;2.09;78.38;101645.31;6185044;23;20029;-78
2023/04/06 05:01:57;;;;;;;16.60;10.50;;;;;;;2.16;77.95;101639.38;6211750;23;20018;-77
2023/04/06 05:04:33;;;;;;;21.73;10.75;;;;;;;2.23;77.75;101636.81;6186169;23;20021;-80
2023/04/06 05:07:07;;;;;;;19.83;10.25;;;;;;;2.26;77.37;101636.09;6186274;23;20485;-80
2023/04/06 05:09:35;;;;;;;17.00;11.02;;;;;;;2.29;77.15;101641.41;6186198;23;20456;-80
2023/04/06 05:12:03;;;;;;;16.40;10.68;;;;;;;2.33;77.15;101633.56;6211578;23;20022;-79
2023/04/06 05:14:35;;;;;;;15.45;10.82;;;;;;;2.37;77.15;101634.34;6187382;23;20022;-79
2023/04/06 05:17:05;;;;;;;17.15;11.00;;;;;;;2.43;76.95;101640.00;6186249;23;20372;-79
2023/04/06 05:19:31;;;;;;;20.08;11.15;;;;;;;2.50;77.12;101640.09;6185839;23;20411;-79
2023/04/06 05:21:59;;;;;;;15.30;10.23;;;;;;;2.55;76.31;101632.63;6186323;23;20498;-79
2023/04/06 05:24:26;;;;;;;17.80;11.50;;;;;;;2.64;75.98;101633.09;6186231;23;20017;-80
2023/04/06 05:26:54;;;;;;;16.30;11.38;;;;;;;2.73;75.66;101638.03;6186357;23;20028;-79
2023/04/06 05:29:23;;;;;;;22.40;12.85;;;;;;;2.80;75.41;101637.34;6186099;23;20025;-79
2023/04/06 05:31:51;;;;;;;19.45;11.80;;;;;;;2.87;74.90;101638.13;6187953;23;20366;-79
2023/04/06 05:34:17;;;;;;;20.70;11.88;;;;;;;2.93;74.82;101626.16;6187244;23;20084;-78
2023/04/06 05:36:45;;;;;;;19.80;12.10;;;;;;;3.00;74.52;101622.84;6186187;23;20024;-79
2023/04/06 05:39:17;;;;;;;19.90;12.82;;;;;;;3.08;74.52;101626.28;6211172;23;20497;-79
2023/04/06 05:41:48;;;;;;;21.20;12.00;;;;;;;3.15;74.25;101631.59;6186507;23;20033;-78
2023/04/06 05:44:22;;;;;;;21.40;11.82;;;;;;;3.23;73.65;101625.22;6185901;23;20032;-79
2023/04/06 05:46:59;;;;;;;20.67;12.25;;;;;;;3.31;73.63;101619.63;6187466;23;20076;-79
2023/04/06 05:49:26;;;;;;;22.00;12.52;;;;;;;3.42;73.09;101629.47;6188931;23;20013;-78
2023/04/06 05:51:53;;;;;;;17.73;12.55;;;;;;;3.50;72.77;101617.84;6189930;23;20027;-78
2023/04/06 05:54:19;;;;;;;18.05;11.70;;;;;;;3.58;72.50;101624.66;6187022;23;20048;-78
2023/04/06 05:56:46;;;;;;;24.30;12.77;;;;;;;3.64;72.58;101621.28;6213307;23;20084;-79
2023/04/06 05:59:14;;;;;;;19.35;12.55;;;;;;;3.73;72.29;101628.09;6187499;23;20053;-78
2023/04/06 06:01:42;;;;;;;21.17;12.43;;;;;;;4.11;72.05;101621.44;6187566;23;20466;-78
2023/04/06 06:04:09;;;;;;;16.92;12.32;;;;;;;5.52;68.64;101617.97;6187496;23;20093;-80
2023/04/06 06:06:38;;;;;;;17.48;11.77;;;;;;;5.86;66.27;101628.03;6163295;23;20013;-80
2023/04/06 06:09:20;;;;;;;20.17;12.55;;;;;;;5.47;65.91;101618.38;6189028;23;20460;-78
2023/04/06 06:11:57;;;;;;;19.33;11.85;;;;;;;5.00;66.90;101615.09;6187695;23;20024;-79
2023/04/06 06:14:28;;;;;;;21.48;13.27;;;;;;;4.83;67.80;101617.72;6187614;23;20017;-80
2023/04/06 06:16:54;;;;;;;25.23;12.55;;;;;;;4.99;67.64;101615.47;6187379;23;20025;-78
2023/04/06 06:19:22;;;;;;;19.20;12.23;;;;;;;5.06;67.45;101619.97;6189511;23;20119;-81
2023/04/06 06:21:51;;;;;;;21.88;13.18;;;;;;;4.92;67.59;101618.84;6189924;23;20175;-80
2023/04/06 06:24:17;;;;;;;20.40;13.23;;;;;;;4.81;68.14;101614.72;6188901;23;20028;-80
2023/04/06 06:26:44;;;;;;;19.67;12.90;;;;;;;4.65;68.61;101617.75;6188160;23;20022;-80
2023/04/06 06:29:13;;;;;;;21.17;12.43;;;;;;;4.57;69.21;101611.72;6187748;23;20356;-81
2023/04/06 06:31:39;;;;;;;25.98;13.25;;;;;;;4.52;69.62;101613.97;6212123;23;20025;-82
2023/04/06 06:34:06;;;;;;;19.35;13.10;;;;;;;4.49;69.56;101618.09;6189283;23;20525;-79
2023/04/06 06:36:35;;;;;;;18.38;12.70;;;;;;;4.51;69.86;101613.22;6187863;23;20022;-79
2023/04/06 06:39:05;;;;;;;21.27;13.55;;;;;;;4.56;69.66;101617.38;6187154;23;20017;-79
2023/04/06 06:41:32;;;;;;;20.30;12.90;;;;;;;4.59;69.61;101620.00;6187233;23;20022;-80
2023/04/06 06:43:58;;;;;;;19.83;12.80;;;;;;;4.66;69.62;101609.47;6187516;23;20096;-79
2023/04/06 06:46:25;;;;;;;24.67;12.70;;;;;;;4.81;69.45;101618.09;6188645;23;20454;-80
2023/04/06 06:48:51;;;;;;;20.90;13.95;;;;;;;4.92;69.69;101613.56;6188089;23;20025;-80
2023/04/06 06:51:18;;;;;;;20.95;13.20;;;;;;;5.05;69.32;101621.09;6189933;23;20077;-80
2023/04/06 06:53:44;;;;;;;21.17;14.02;;;;;;;5.18;69.80;101611.66;6188627;23;20017;-79
2023/04/06 06:56:12;;;;;;;18.40;12.60;;;;;;;5.26;69.21;101608.59;6192971;23;20451;-79
2023/04/06 06:58:42;;;;;;;19.30;12.85;;;;;;;5.36;68.36;101617.63;6188612;23;20028;-78
2023/04/06 07:01:08;;;;;;;20.30;13.68;;;;;;;5.47;68.58;101615.72;6187366;23;20488;-79
2023/04/06 07:03:35;;;;;;;19.20;13.52;;;;;;;5.56;68.06;101613.44;6188443;23;20424;-79
2023/04/06 07:06:02;;;;;;;22.13;14.43;;;;;;;5.65;67.38;101605.81;6188239;23;20014;-80
2023/04/06 07:08:28;;;;;;;23.63;15.23;;;;;;;5.68;66.74;101618.28;6213544;23;20467;-80
2023/04/06 07:10:58;;;;;;;21.73;14.50;;;;;;;5.69;66.34;101605.81;6191106;23;20021;-77
2023/04/06 07:13:26;;;;;;;19.70;14.07;;;;;;;5.68;66.65;101604.31;6188360;23;20112;-78
2023/04/06 07:15:55;;;;;;;22.52;14.90;;;;;;;5.69;66.69;101601.28;6187786;23;20476;-78
2023/04/06 07:18:25;;;;;;;22.40;14.57;;;;;;;5.70;66.72;101594.88;6190146;23;20044;-78
2023/04/06 07:20:51;;;;;;;22.15;14.85;;;;;;;5.70;66.29;101597.50;6190252;23;20455;-79
2023/04/06 07:23:18;;;;;;;26.42;15.90;;;;;;;5.72;65.89;101599.00;6187774;23;20022;-76
2023/04/06 07:25:45;;;;;;;26.60;16.08;;;;;;;5.71;66.08;101595.63;6191536;23;20092;-78
2023/04/06 07:28:12;;;;;;;26.88;14.77;;;;;;;5.74;65.57;101597.50;6188016;23;20387;-80
2023/04/06 07:30:38;;;;;;;25.98;16.33;;;;;;;5.75;65.74;101595.59;6212466;23;20113;-77
2023/04/06 07:33:07;;;;;;;25.38;15.68;;;;;;;5.75;65.55;101598.25;6187027;23;20017;-77
2023/04/06 07:35:36;;;;;;;25.20;15.00;;;;;;;5.74;66.12;101586.94;6162242;23;20022;-77
2023/04/06 07:38:03;;;;;;;26.02;15.60;;;;;;;5.78;65.66;101597.47;6186958;23;20051;-76
2023/04/06 07:40:34;;;;;;;24.10;15.93;;;;;;;5.80;65.83;101597.84;6187075;23;20125;-78
2023/04/06 07:43:02;;;;;;;23.73;15.38;;;;;;;5.82;65.60;101593.69;6188413;23;20025;-80
2023/04/06 07:45:29;;;;;;;25.20;16.13;;;;;;;5.86;65.63;101594.41;6187196;23;20455;-78
2023/04/06 07:47:57;;;;;;;21.90;15.45;;;;;;;5.92;65.87;101592.91;6187630;23;20091;-77
2023/04/06 07:50:25;;;;;;;22.55;14.75;;;;;;;5.98;65.82;101595.91;6188016;23;20032;-79
2023/04/06 07:52:53;;;;;;;24.20;15.40;;;;;;;6.04;65.73;101596.97;6188378;23;20057;-79
2023/04/06 07:55:19;;;;;;;24.55;16.23;;;;;;;6.12;65.68;101598.44;6187789;23;20024;-79
2023/04/06 07:57:46;;;;;;;24.63;16.52;;;;;;;6.17;65.66;101594.63;6189781;23;20013;-80
2023/04/06 08:00:13;;;;;;;28.50;16.30;;;;;;;6.22;65.59;101599.50;6189276;23;20526;-78
2023/04/06 08:02:40;;;;;;;25.23;16.38;;;;;;;6.26;65.21;101597.59;6187739;23;20104;-78
2023/04/06 08:05:07;;;;;;;25.75;15.65;;;;;;;6.31;65.05;101603.22;6189140;23;20462;-78
2023/04/06 08:07:33;;;;;;;25.05;15.77;;;;;;;6.37;65.02;101606.22;6189647;23;20021;-78
2023/04/06 08:10:00;;;;;;;21.65;16.08;;;;;;;6.43;64.83;101591.41;6188748;23;20017;-78
2023/04/06 08:12:27;;;;;;;27.08;16.63;;;;;;;6.49;65.25;101597.03;6187532;23;20025;-79
2023/04/06 08:14:53;;;;;;;26.67;16.48;;;;;;;6.56;64.91;101600.38;6191394;23;20050;-81
2023/04/06 08:17:20;;;;;;;27.52;17.30;;;;;;;6.64;64.63;101599.19;6189320;23;20114;-82
2023/04/06 08:19:46;;;;;;;26.85;16.35;;;;;;;6.74;64.41;101594.97;6187961;23;20465;-81
2023/04/06 08:22:13;;;;;;;25.27;16.95;;;;;;;6.84;64.39;101599.38;6189349;23;20017;-80
2023/04/06 08:24:39;;;;;;;24.65;16.42;;;;;;;6.89;64.66;101591.03;6189764;23;20025;-80
2023/04/06 08:27:06;;;;;;;24.75;17.23;;;;;;;7.03;64.21;101598.09;6188896;23;20073;-89
2023/04/06 08:29:33;;;;;;;23.98;15.98;;;;;;;7.03;63.93;101593.53;6188141;23;20025;-78
2023/04/06 08:32:00;;;;;;;23.92;16.40;;;;;;;7.07;63.86;101596.16;6189663;23;20100;-79
2023/04/06 08:34:26;;;;;;;25.17;17.23;;;;;;;7.18;63.80;101594.16;6189834;23;20018;-80
2023/04/06 08:36:53;;;;;;;31.17;17.20;;;;;;;7.30;63.41;101590.22;6189453;23;20017;-80
2023/04/06 08:39:27;;;;;;;25.92;16.80;;;;;;;7.36;63.26;101589.38;6187082;23;20455;-78
2023/04/06 08:41:56;;;;;;;27.60;17.15;;;;;;;7.43;63.42;101590.47;6186861;23;20735;-77
2023/04/06 08:44:24;;;;;;;25.75;16.05;;;;;;;7.45;63.59;101594.22;6189067;23;20028;-77
2023/04/06 08:46:51;;;;;;;25.65;17.10;;;;;;;7.53;63.12;101592.97;6188456;23;20020;-77
2023/04/06 08:49:18;;;;;;;26.17;16.98;;;;;;;7.53;62.90;101589.59;6187544;23;20096;-77
2023/04/06 08:51:44;;;;;;;29.58;17.83;;;;;;;7.59;62.71;101594.06;6189489;23;20416;-77
2023/04/06 08:54:11;;;;;;;29.20;18.20;;;;;;;7.66;63.30;101591.28;6189225;23;20037;-77
2023/04/06 08:56:38;;;;;;;29.30;17.98;;;;;;;7.70;62.74;101592.00;6188668;23;20064;-78
2023/04/06 08:59:06;;;;;;;26.80;17.83;;;;;;;7.73;62.92;101593.09;6188809;23;20084;-77
2023/04/06 09:01:41;;;;;;;29.33;18.13;;;;;;;7.79;62.93;101588.84;6189046;23;20018;-77
2023/04/06 09:04:11;;;;;;;29.77;18.35;;;;;;;7.90;63.16;101596.69;6187404;23;20096;-77
2023/04/06 09:06:40;;;;;;;26.23;17.70;;;;;;;8.00;63.45;101593.09;6189353;23;20018;-77
2023/04/06 09:09:07;;;;;;;29.73;16.52;;;;;;;8.09;62.56;101598.66;6188701;23;20026;-81
2023/04/06 09:11:50;;;;;;;32.47;18.33;;;;;;;8.19;63.16;101595.09;6211918;23;20089;-82
2023/04/06 09:14:32;;;;;;;24.77;17.08;;;;;;;8.32;62.49;101597.97;6188928;23;20028;-78
2023/04/06 09:16:59;;;;;;;29.67;18.75;;;;;;;8.47;62.57;101593.94;6188763;23;20021;-76
2023/04/06 09:19:25;;;;;;;30.48;18.88;;;;;;;8.62;62.25;101605.09;6190451;23;20028;-75
2023/04/06 09:22:02;;;;;;;25.30;17.55;;;;;;;8.74;61.35;101596.53;6189108;23;20469;-75
2023/04/06 09:24:39;;;;;;;25.00;17.00;;;;;;;8.74;61.70;101596.53;6213957;23;20133;-77
2023/04/06 09:27:06;;;;;;;28.80;17.20;;;;;;;8.74;61.01;101596.53;6189533;23;20017;-77
2023/04/06 09:29:33;;;;;;;28.25;18.58;;;;;;;8.75;61.86;101597.28;6188541;23;20109;-77
2023/04/06 09:32:04;;;;;;;23.25;17.42;;;;;;;8.78;61.59;101594.59;6189932;23;20093;-76
2023/04/06 09:34:31;;;;;;;25.90;17.38;;;;;;;8.85;60.85;101599.75;6191317;23;20014;-77
2023/04/06 09:36:58;;;;;;;26.70;17.63;;;;;;;8.80;61.52;101594.91;6189923;23;20056;-77
2023/04/06 09:39:25;;;;;;;32.75;19.02;;;;;;;8.86;61.50;101597.84;6189792;23;20503;-77
2023/04/06 09:41:54;;;;;;;28.90;18.23;;;;;;;8.99;61.16;101596.84;6190068;23;20014;-78
2023/04/06 09:44:20;;;;;;;29.67;18.05;;;;;;;9.09;60.92;101597.06;6190209;23;20089;-78
2023/04/06 09:46:47;;;;;;;24.92;17.55;;;;;;;9.11;60.92;101595.50;6190222;23;20014;-77
2023/04/06 09:49:31;;;;;;;26.67;18.65;;;;;;;9.17;61.56;101596.53;6187450;23;20072;-75
2023/04/06 09:52:07;;;;;;;26.52;18.23;;;;;;;9.22;62.19;101600.59;6190024;23;20018;-76
2023/04/06 09:54:35;;;;;;;31.33;18.80;;;;;;;9.39;63.19;101596.84;6189822;23;20388;-76
2023/04/06 09:57:08;;;;;;;31.00;18.50;;;;;;;9.51;62.73;101598.16;6189884;23;20014;-76
2023/04/06 10:00:11;;;;;;;29.58;18.73;;;;;;;9.57;63.14;101593.84;6190174;23;20393;-76
2023/04/06 10:02:56;;;;;;;31.08;19.30;;;;;;;9.67;63.95;101588.28;6190400;23;20084;-76
2023/04/06 10:05:37;;;;;;;31.90;19.50;;;;;;;9.78;64.11;101587.31;6189299;23;20108;-75
2023/04/06 10:08:08;;;;;;;32.35;20.75;;;;;;;9.88;64.00;101591.66;6189763;23;20020;-77
2023/04/06 10:10:35;;;;;;;33.55;20.13;;;;;;;9.95;63.99;101589.59;6189736;23;20024;-77
2023/04/06 10:13:05;;;;;;;30.00;19.25;;;;;;;10.01;63.62;101593.25;6190267;23;20209;-78
2023/04/06 10:15:33;;;;;;;23.58;17.27;;;;;;;10.01;64.95;101606.53;6190328;23;20018;-78
2023/04/06 10:18:00;;;;;;;27.00;17.65;;;;;;;10.04;64.32;101599.66;6189772;23;20395;-77
2023/04/06 10:20:42;;;;;;;29.05;18.17;;;;;;;10.08;65.09;101602.22;6190079;23;20487;-76
2023/04/06 10:23:22;;;;;;;23.92;14.68;;;;;;;10.02;64.54;101602.72;6189024;23;20097;-77
2023/04/06 10:25:57;;;;;;;24.75;14.40;;;;;;;9.95;65.13;101604.81;6188498;23;20022;-76
2023/04/06 10:28:25;;;;;;;23.90;14.73;;;;;;;9.92;65.54;101595.00;6190247;23;20022;-78
2023/04/06 10:30:59;;;;;;;27.00;14.10;;;;;;;9.94;65.87;101600.66;6189659;23;20032;-77
2023/04/06 10:33:25;;;;;;;23.90;13.38;;;;;;;9.95;66.56;101599.50;6189741;23;20076;-77
2023/04/06 10:35:52;;;;;;;15.43;11.73;;;;;;;9.87;67.44;101598.16;6189839;23;20443;-77
2023/04/06 10:38:21;;;;;;;16.15;12.55;;;;;;;9.85;68.36;101595.91;6189095;23;20018;-78
2023/04/06 10:40:48;;;;;;;18.98;11.60;;;;;;;9.82;69.03;101595.97;6187982;23;20045;-77
2023/04/06 10:43:22;;;;;;;14.82;10.98;;;;;;;9.85;69.68;101595.91;6188983;23;20491;-78
2023/04/06 10:45:56;;;;;;;16.52;10.52;;;;;;;9.81;70.65;101589.16;6189927;23;20102;-76
2023/04/06 10:48:23;;;;;;;11.07;8.45;;;;;;;9.74;71.13;101597.28;6190169;23;20019;-85
2023/04/06 10:50:52;;;;;;;8.10;7.28;;;;;;;9.69;71.98;101595.84;6190004;23;20317;-78
2023/04/06 10:53:24;;;;;;;8.23;7.43;;;;;;;9.64;72.40;101599.00;6189407;23;20010;-76
2023/04/06 10:55:51;;;;;;;8.07;6.88;;;;;;;9.61;73.36;101595.25;6190068;23;20021;-76
2023/04/06 10:58:19;;;;;;;8.43;6.40;;;;;;;9.59;73.81;101592.28;6189939;23;20018;-76
2023/04/06 11:00:47;;;;;;;8.88;6.50;;;;;;;9.53;74.86;101587.84;6189524;23;20017;-76
2023/04/06 11:03:17;;;;;;;9.95;6.47;;;;;;;9.45;75.54;101589.16;6189446;23;20017;-75
2023/04/06 11:05:45;;;;;;;8.18;6.80;;;;;;;9.44;76.59;101587.66;6187970;23;20455;-78
2023/04/06 11:08:25;;;;;;;7.85;6.18;;;;;;;9.38;76.73;101582.06;6189000;23;20036;-75
2023/04/06 11:10:51;;;;;;;8.02;6.18;;;;;;;9.41;78.12;101585.81;6189883;23;20022;-76
2023/04/06 11:13:18;;;;;;;7.75;6.13;;;;;;;9.46;77.79;101578.13;6189532;23;20065;-76
2023/04/06 11:15:44;;;;;;;6.68;5.88;;;;;;;9.34;77.78;101570.75;6189957;23;20018;-75
2023/04/06 11:18:12;;;;;;;6.78;5.82;;;;;;;9.25;78.03;101581.94;6189352;23;20014;-75
2023/04/06 11:20:38;;;;;;;5.88;5.22;;;;;;;9.12;77.49;101575.00;6189876;23;20049;-75
2023/04/06 11:23:06;;;;;;;6.78;5.32;;;;;;;9.14;78.48;101573.44;6188980;23;20018;-75
2023/04/06 11:25:32;;;;;;;5.32;4.93;;;;;;;9.11;78.05;101574.25;6190166;23;20028;-77
2023/04/06 11:27:59;;;;;;;5.68;5.18;;;;;;;9.15;79.40;101568.88;6189653;23;20013;-77